Time;durP1;ratioP1;P1;durP2;ratioP2;P2;SDS_P1;SDS_P2;PMS_P1;PMS_P2;Temp;Humidity;BMP_temperature;BMP_pressure;BME280_temperature;BME280_humidity;BME280_pressure;Samples;Min_cycle;Max_cycle;Signal;HPM_P1;HPM_P2
2023/04/13 00:02:37;;;;;;;9.80;2.20;;;;;;;14.09;nan;101835.81;4949834;29;20430;-95
2023/04/13 00:05:40;;;;;;;7.43;1.50;;;;;;;14.17;nan;101865.97;4925158;29;20459;-95
2023/04/13 00:09:02;;;;;;;13.10;1.60;;;;;;;14.14;nan;101862.75;4940038;29;20542;-95
2023/04/13 00:11:33;;;;;;;12.07;1.40;;;;;;;14.01;nan;101843.34;4939331;29;20459;-94
2023/04/13 00:17:58;;;;;;;9.30;1.83;;;;;;;13.89;nan;101844.81;4937523;29;20427;-95
2023/04/13 00:21:24;;;;;;;7.30;1.73;;;;;;;13.97;nan;101853.00;4890597;29;20827;-95
2023/04/13 00:34:11;;;;;;;18.20;1.80;;;;;;;13.83;nan;101865.69;4936072;29;20516;-94
2023/04/13 00:40:15;;;;;;;7.30;1.63;;;;;;;13.79;nan;101872.59;4938014;29;20937;-95
2023/04/13 00:43:26;;;;;;;8.43;1.40;;;;;;;13.78;nan;101887.38;4897001;29;20917;-94
2023/04/13 00:49:50;;;;;;;8.10;2.40;;;;;;;13.71;nan;101880.91;4918111;29;20603;-95
2023/04/13 00:52:37;;;;;;;10.57;1.50;;;;;;;13.73;nan;101874.19;4892506;29;20833;-93
2023/04/13 00:55:58;;;;;;;3.60;1.27;;;;;;;13.72;nan;101868.88;4936323;29;20460;-95
2023/04/13 01:01:55;;;;;;;10.23;1.30;;;;;;;13.49;nan;101856.03;4905181;29;20464;-94
2023/04/13 01:12:31;;;;;;;7.97;1.60;;;;;;;13.47;nan;101884.72;4931803;29;20448;-95
2023/04/13 01:22:14;;;;;;;10.50;1.53;;;;;;;13.28;nan;101868.75;4904391;29;20513;-95
2023/04/13 01:28:35;;;;;;;7.20;1.57;;;;;;;13.22;nan;101864.03;4917983;29;20544;-95
2023/04/13 01:34:48;;;;;;;8.43;1.77;;;;;;;13.36;nan;101887.91;4918996;29;20946;-93
2023/04/13 01:37:56;;;;;;;10.90;1.50;;;;;;;13.36;nan;101882.44;4889320;29;20464;-96
2023/04/13 01:40:48;;;;;;;6.27;1.30;;;;;;;13.35;nan;101887.06;4920030;29;20460;-95
2023/04/13 01:44:19;;;;;;;;;;;;;;;;;;;;;
2023/04/13 01:47:19;;;;;;;8.63;1.70;;;;;;;13.24;nan;101856.47;4928236;29;20458;-94
2023/04/13 01:50:25;;;;;;;7.70;1.60;;;;;;;13.19;nan;101856.16;4893096;29;20465;-94
2023/04/13 01:56:43;;;;;;;8.50;2.10;;;;;;;13.19;nan;101858.88;4940044;29;20407;-94
2023/04/13 01:59:43;;;;;;;14.30;1.60;;;;;;;13.21;nan;101856.81;4892408;29;20452;-95
2023/04/13 02:02:26;;;;;;;6.13;1.20;;;;;;;13.22;nan;101858.53;4908497;29;20455;-94
2023/04/13 02:08:41;;;;;;;19.80;1.27;;;;;;;13.18;nan;101854.44;4938886;29;20422;-96
2023/04/13 02:11:12;;;;;;;7.60;1.20;;;;;;;13.20;nan;101847.72;4891960;29;20463;-94
2023/04/13 02:14:10;;;;;;;7.00;1.20;;;;;;;13.17;nan;101842.59;4922830;29;20459;-95
2023/04/13 02:17:03;;;;;;;5.57;1.70;;;;;;;13.09;nan;101837.97;4925429;29;20530;-96
2023/04/13 02:19:45;;;;;;;9.70;1.27;;;;;;;13.03;nan;101827.75;4923331;29;20500;-95
2023/04/13 02:22:40;;;;;;;14.27;2.17;;;;;;;13.03;nan;101841.47;4908988;29;20937;-95
2023/04/13 02:25:46;;;;;;;9.37;1.70;;;;;;;13.01;nan;101850.94;4907458;29;20499;-95
2023/04/13 02:32:22;;;;;;;6.80;1.50;;;;;;;12.85;nan;101851.91;4938661;29;20466;-96
2023/04/13 02:35:41;;;;;;;13.17;1.80;;;;;;;12.95;nan;101865.38;4875494;29;20449;-95
2023/04/13 02:38:30;;;;;;;13.43;1.50;;;;;;;12.92;nan;101863.00;4946807;28;20456;-94
2023/04/13 02:41:07;;;;;;;10.73;1.40;;;;;;;12.77;nan;101835.47;4955361;29;20826;-95
2023/04/13 02:44:18;;;;;;;9.17;1.70;;;;;;;12.93;nan;101865.56;4911124;29;20485;-95
2023/04/13 02:47:13;;;;;;;10.43;2.07;;;;;;;12.93;nan;101871.03;4903213;29;20468;-94
2023/04/13 02:49:45;;;;;;;9.80;1.90;;;;;;;12.81;nan;101856.03;4888138;29;20461;-94
2023/04/13 02:52:30;;;;;;;15.00;2.13;;;;;;;12.88;nan;101872.63;4873821;29;20464;-95
2023/04/13 02:58:36;;;;;;;8.37;2.00;;;;;;;12.79;nan;101836.16;4934810;29;20519;-95
2023/04/13 03:01:49;;;;;;;10.77;1.97;;;;;;;12.93;nan;101862.81;4888660;29;20496;-95
2023/04/13 03:04:19;;;;;;;8.70;1.70;;;;;;;12.77;nan;101844.56;4903530;29;20854;-95
2023/04/13 03:10:30;;;;;;;11.60;1.67;;;;;;;12.80;nan;101881.75;4920075;29;20970;-95
2023/04/13 03:13:00;;;;;;;16.30;1.73;;;;;;;12.91;nan;101888.72;4888751;29;20547;-95
2023/04/13 03:15:41;;;;;;;10.97;1.43;;;;;;;12.94;nan;101872.75;4887822;29;20810;-96
2023/04/13 03:22:29;;;;;;;9.10;1.60;;;;;;;12.86;nan;101892.03;4861876;29;20459;-94
2023/04/13 03:25:04;;;;;;;16.23;1.93;;;;;;;12.76;nan;101880.41;4850593;29;20488;-96
2023/04/13 03:27:35;;;;;;;9.10;1.40;;;;;;;12.70;nan;101876.50;4813615;29;20454;-95
2023/04/13 03:30:03;;;;;;;13.40;1.80;;;;;;;12.83;nan;101897.00;4813081;29;20464;-95
2023/04/13 03:32:37;;;;;;;8.00;1.23;;;;;;;12.77;nan;101871.16;4813361;29;20563;-95
2023/04/13 03:35:08;;;;;;;6.80;1.77;;;;;;;12.76;nan;101877.66;4756648;30;20474;-95
2023/04/13 03:37:41;;;;;;;6.93;1.73;;;;;;;12.58;nan;101844.19;4770926;30;20456;-95
2023/04/13 03:40:23;;;;;;;11.93;1.50;;;;;;;12.66;nan;101868.81;4770879;30;20517;-94
2023/04/13 03:43:07;;;;;;;9.53;1.67;;;;;;;12.61;nan;101858.38;4756026;30;20464;-96
2023/04/13 03:45:35;;;;;;;9.13;2.40;;;;;;;12.60;nan;101858.56;4755641;30;20870;-95
2023/04/13 03:48:04;;;;;;;5.40;1.37;;;;;;;12.63;nan;101863.69;4755993;30;20490;-95
2023/04/13 03:50:36;;;;;;;6.20;1.63;;;;;;;12.76;nan;101869.44;4756010;30;20456;-95
2023/04/13 03:53:07;;;;;;;9.77;1.67;;;;;;;12.69;nan;101868.47;4770951;30;20460;-95
2023/04/13 03:55:40;;;;;;;19.83;2.00;;;;;;;12.69;nan;101876.69;4755843;30;20472;-95
2023/04/13 03:58:22;;;;;;;5.90;1.80;;;;;;;12.74;nan;101882.47;4801284;29;20504;-95
2023/04/13 04:00:55;;;;;;;10.30;2.00;;;;;;;12.66;nan;101866.09;4905019;29;20463;-96
2023/04/13 04:03:48;;;;;;;6.97;1.90;;;;;;;12.70;nan;101876.50;4923553;29;20554;-95
2023/04/13 04:06:44;;;;;;;8.57;1.70;;;;;;;12.56;nan;101859.94;4893958;29;20942;-95
2023/04/13 04:09:25;;;;;;;14.77;1.77;;;;;;;12.61;nan;101874.84;4893179;29;20460;-95
2023/04/13 04:11:57;;;;;;;8.70;1.67;;;;;;;12.61;nan;101865.75;4891125;29;20474;-95
2023/04/13 04:14:37;;;;;;;10.97;2.47;;;;;;;12.59;nan;101873.31;4891727;29;20813;-95
2023/04/13 04:17:05;;;;;;;11.40;1.87;;;;;;;12.66;nan;101888.03;4906791;29;20846;-95
2023/04/13 04:19:42;;;;;;;10.67;1.73;;;;;;;12.51;nan;101863.22;4881304;29;20460;-94
2023/04/13 04:22:33;;;;;;;11.43;2.23;;;;;;;12.60;nan;101886.00;4872127;29;20448;-95
2023/04/13 04:25:06;;;;;;;10.37;1.33;;;;;;;12.44;nan;101862.25;4889167;29;20499;-95
2023/04/13 04:27:56;;;;;;;8.07;1.33;;;;;;;12.42;nan;101862.44;4867844;29;20450;-95
2023/04/13 04:30:32;;;;;;;6.63;1.53;;;;;;;12.34;nan;101848.75;4926550;29;20465;-94
2023/04/13 04:33:06;;;;;;;9.53;1.63;;;;;;;12.32;nan;101850.81;4914478;29;20461;-94
2023/04/13 04:39:22;;;;;;;9.03;1.57;;;;;;;12.31;nan;101854.59;4906573;29;20493;-96
2023/04/13 04:42:08;;;;;;;5.73;1.37;;;;;;;12.41;nan;101871.69;4900184;29;20467;-94
2023/04/13 04:44:43;;;;;;;7.60;1.37;;;;;;;12.31;nan;101843.66;4906385;29;20491;-95
2023/04/13 04:47:48;;;;;;;9.80;1.70;;;;;;;12.47;nan;101866.53;4920418;29;20460;-95
2023/04/13 04:54:04;;;;;;;11.93;2.37;;;;;;;12.34;nan;101843.25;4937596;29;20424;-94
2023/04/13 05:00:19;;;;;;;9.87;1.90;;;;;;;12.38;nan;101858.31;4938331;29;20476;-96
2023/04/13 05:06:34;;;;;;;10.80;1.63;;;;;;;12.40;nan;101858.16;4956143;29;20430;-94
2023/04/13 05:09:30;;;;;;;8.53;1.57;;;;;;;12.50;nan;101877.13;4899372;29;20510;-96
2023/04/13 05:15:42;;;;;;;13.63;1.27;;;;;;;12.51;nan;101876.09;4921931;29;20511;-95
2023/04/13 05:18:32;;;;;;;6.70;1.40;;;;;;;12.44;nan;101874.06;4901408;29;20446;-94
2023/04/13 05:24:47;;;;;;;10.10;1.87;;;;;;;12.28;nan;101868.66;4934864;29;20482;-95
2023/04/13 05:27:55;;;;;;;10.20;1.80;;;;;;;12.32;nan;101897.41;4924236;29;20458;-95
2023/04/13 05:34:03;;;;;;;8.97;1.50;;;;;;;12.10;nan;101906.41;4959735;29;20502;-95
2023/04/13 05:36:52;;;;;;;3.17;0.97;;;;;;;12.11;nan;101924.56;4942787;29;20455;-95
2023/04/13 05:39:25;;;;;;;5.00;1.30;;;;;;;11.98;nan;101907.78;4958708;28;20538;-95
2023/04/13 05:50:03;;;;;;;6.90;1.27;;;;;;;11.92;nan;101914.84;4921881;29;20428;-95
2023/04/13 05:52:46;;;;;;;10.67;3.10;;;;;;;11.86;nan;101921.00;4938670;29;20452;-96
2023/04/13 05:55:33;;;;;;;8.63;1.30;;;;;;;11.77;nan;101922.88;4908338;29;20470;-96
2023/04/13 05:58:15;;;;;;;5.23;1.53;;;;;;;11.66;nan;101930.56;4908022;29;20455;-95
2023/04/13 06:04:29;;;;;;;4.63;1.30;;;;;;;11.44;nan;101921.16;4921315;29;20519;-95
2023/04/13 06:10:40;;;;;;;4.43;1.43;;;;;;;11.33;nan;101914.16;4942707;29;20558;-95
2023/04/13 06:13:40;;;;;;;7.70;1.73;;;;;;;11.55;nan;101944.59;4908424;29;20487;-95
2023/04/13 06:16:40;;;;;;;9.70;1.63;;;;;;;11.61;nan;101954.88;4931039;29;20455;-96
2023/04/13 06:22:52;;;;;;;8.80;1.40;;;;;;;11.72;nan;101957.28;4939758;29;20499;-95
2023/04/13 06:25:22;;;;;;;5.40;1.73;;;;;;;11.72;nan;101963.63;4906955;29;20514;-95
2023/04/13 06:28:30;;;;;;;6.97;1.30;;;;;;;11.74;nan;101972.50;4908570;29;20447;-96
2023/04/13 06:31:16;;;;;;;14.93;1.67;;;;;;;11.66;nan;101952.47;4925785;29;20568;-95
2023/04/13 06:33:54;;;;;;;6.70;1.70;;;;;;;11.74;nan;101961.53;4927317;29;20455;-94
2023/04/13 06:40:33;;;;;;;15.53;1.20;;;;;;;11.93;nan;101963.09;4958884;29;20474;-95
2023/04/13 06:43:46;;;;;;;8.03;1.20;;;;;;;12.09;nan;101982.28;4924576;29;20451;-95
2023/04/13 06:50:22;;;;;;;8.03;2.67;;;;;;;12.30;nan;101994.59;4958832;29;20473;-96
2023/04/13 14:17:10;;;;;;;;;;;;;;;;;;;;;
2023/04/13 21:30:44;;;;;;;13.93;1.80;;;;;;;14.86;nan;102031.63;4936360;29;20426;-88
2023/04/13 21:33:12;;;;;;;7.80;1.80;;;;;;;14.74;nan;102005.63;4879940;29;20456;-90
2023/04/13 21:39:19;;;;;;;13.90;1.53;;;;;;;14.79;nan;102029.84;4912135;29;20459;-90
2023/04/13 21:42:24;;;;;;;16.00;2.73;;;;;;;14.78;nan;102028.13;4900672;29;20460;-90
2023/04/13 21:45:27;;;;;;;16.60;2.13;;;;;;;14.75;nan;102034.00;4885466;29;20559;-90
2023/04/13 21:48:19;;;;;;;7.80;1.60;;;;;;;14.68;nan;102006.38;4900058;29;20448;-90
2023/04/13 22:14:42;;;;;;;6.77;1.70;;;;;;;14.56;nan;101980.38;4736466;30;20468;-91
2023/04/13 22:49:04;;;;;;;8.07;1.63;;;;;;;14.35;nan;101966.50;4715315;30;20541;-92
2023/04/13 22:51:43;;;;;;;14.30;2.07;;;;;;;14.44;nan;101982.75;4745512;29;20467;-90
2023/04/13 22:54:15;;;;;;;17.70;2.60;;;;;;;14.43;nan;101981.03;4820698;29;20446;-90
2023/04/13 22:57:01;;;;;;;14.80;1.60;;;;;;;14.37;nan;101976.28;4806702;29;20628;-92
2023/04/13 22:59:33;;;;;;;11.20;1.70;;;;;;;14.44;nan;101976.38;4810582;29;20457;-91
2023/04/13 23:02:08;;;;;;;13.33;2.47;;;;;;;14.45;nan;101998.19;4839831;29;20462;-91
2023/04/13 23:04:49;;;;;;;11.47;1.77;;;;;;;14.43;nan;101986.53;4809197;29;20453;-91
2023/04/13 23:07:33;;;;;;;10.77;1.87;;;;;;;14.36;nan;101982.81;4821757;29;20453;-92
2023/04/13 23:10:01;;;;;;;7.90;1.30;;;;;;;14.37;nan;101994.66;4825108;29;20473;-92
2023/04/13 23:12:37;;;;;;;11.80;2.20;;;;;;;14.39;nan;101996.19;4847521;29;20456;-92
2023/04/13 23:15:08;;;;;;;5.47;1.60;;;;;;;14.36;nan;101990.22;4846492;29;20507;-91
2023/04/13 23:17:38;;;;;;;16.63;1.90;;;;;;;14.39;nan;101990.69;4832221;29;20463;-91
2023/04/13 23:20:06;;;;;;;7.20;1.50;;;;;;;14.29;nan;101984.59;4836379;29;20896;-88
2023/04/13 23:22:35;;;;;;;11.73;1.90;;;;;;;14.29;nan;101989.25;4871406;29;21011;-87
2023/04/13 23:25:03;;;;;;;10.60;2.20;;;;;;;14.28;nan;101993.88;4872901;29;20449;-91
2023/04/13 23:27:33;;;;;;;13.67;2.07;;;;;;;14.22;nan;101980.91;4886867;29;20465;-92
2023/04/13 23:30:03;;;;;;;12.17;2.43;;;;;;;14.23;nan;101981.75;4902453;29;20791;-91
2023/04/13 23:32:31;;;;;;;9.10;1.40;;;;;;;14.20;nan;101980.25;4879651;29;20816;-91
2023/04/13 23:35:05;;;;;;;14.10;1.90;;;;;;;14.22;nan;101980.91;4868400;29;20453;-91
2023/04/13 23:37:40;;;;;;;11.03;1.57;;;;;;;14.24;nan;101976.03;4853376;29;20477;-91
2023/04/13 23:40:19;;;;;;;25.47;3.40;;;;;;;14.16;nan;101967.91;4869561;29;20812;-92
2023/04/13 23:42:50;;;;;;;12.13;1.77;;;;;;;14.21;nan;101972.84;4791429;29;20454;-92
2023/04/13 23:45:18;;;;;;;8.00;1.70;;;;;;;14.17;nan;101975.09;4787828;29;20497;-92
2023/04/13 23:47:47;;;;;;;12.93;1.90;;;;;;;14.13;nan;101974.63;4788091;30;20496;-91
2023/04/13 23:50:16;;;;;;;8.40;1.30;;;;;;;13.96;nan;101961.22;4803103;29;20609;-91
2023/04/13 23:53:02;;;;;;;15.17;2.97;;;;;;;14.00;nan;101966.16;4787354;29;20467;-91
2023/04/13 23:55:32;;;;;;;5.77;1.80;;;;;;;13.94;nan;101963.31;4770201;30;20999;-91
2023/04/13 23:58:01;;;;;;;7.50;1.67;;;;;;;13.96;nan;101961.22;4788832;29;20962;-91
